sensor_id;sensor_type;location;lat;lon;timestamp;pressure;altitude;pressure_sealevel;temperature;humidity
60874;BME280;46715;40.642;-7.920;2023-08-06T00:00:54;96457.19;;;20.75;64.09
60874;BME280;46715;40.642;-7.920;2023-08-06T00:02:54;96457.72;;;20.69;63.65
60874;BME280;46715;40.642;-7.920;2023-08-06T00:04:55;96450.72;;;20.64;63.46
60874;BME280;46715;40.642;-7.920;2023-08-06T00:06:55;96449.94;;;20.64;63.36
60874;BME280;46715;40.642;-7.920;2023-08-06T00:08:56;96457.56;;;20.65;63.65
60874;BME280;46715;40.642;-7.920;2023-08-06T00:10:57;96448.06;;;20.64;63.64
60874;BME280;46715;40.642;-7.920;2023-08-06T00:12:57;96448.06;;;20.64;63.96
60874;BME280;46715;40.642;-7.920;2023-08-06T00:14:57;96455.56;;;20.62;64.19
60874;BME280;46715;40.642;-7.920;2023-08-06T00:16:58;96451.38;;;20.61;64.08
60874;BME280;46715;40.642;-7.920;2023-08-06T00:18:58;96444.22;;;20.61;64.11
60874;BME280;46715;40.642;-7.920;2023-08-06T00:20:59;96442.19;;;20.58;64.39
60874;BME280;46715;40.642;-7.920;2023-08-06T00:22:59;96440.19;;;20.55;64.66
60874;BME280;46715;40.642;-7.920;2023-08-06T00:25:00;96439.31;;;20.51;64.60
60874;BME280;46715;40.642;-7.920;2023-08-06T00:27:01;96436.22;;;20.49;64.65
60874;BME280;46715;40.642;-7.920;2023-08-06T00:29:06;96442.06;;;20.42;64.80
60874;BME280;46715;40.642;-7.920;2023-08-06T00:31:06;96431.31;;;20.39;64.72
60874;BME280;46715;40.642;-7.920;2023-08-06T00:33:07;96428.25;;;20.37;64.57
60874;BME280;46715;40.642;-7.920;2023-08-06T00:35:07;96429.34;;;20.36;65.00
60874;BME280;46715;40.642;-7.920;2023-08-06T00:37:08;96425.91;;;20.35;64.62
60874;BME280;46715;40.642;-7.920;2023-08-06T00:39:09;96427.34;;;20.33;64.78
60874;BME280;46715;40.642;-7.920;2023-08-06T00:41:09;96422.03;;;20.33;64.79
60874;BME280;46715;40.642;-7.920;2023-08-06T00:43:10;96416.63;;;20.29;64.87
60874;BME280;46715;40.642;-7.920;2023-08-06T00:45:11;96421.81;;;20.25;65.26
60874;BME280;46715;40.642;-7.920;2023-08-06T00:47:12;96425.75;;;20.19;66.28
60874;BME280;46715;40.642;-7.920;2023-08-06T00:49:12;96423.19;;;20.10;66.45
60874;BME280;46715;40.642;-7.920;2023-08-06T00:51:13;96422.72;;;20.08;66.31
60874;BME280;46715;40.642;-7.920;2023-08-06T00:53:13;96430.22;;;20.06;66.66
60874;BME280;46715;40.642;-7.920;2023-08-06T00:55:15;96419.47;;;20.03;66.80
60874;BME280;46715;40.642;-7.920;2023-08-06T00:57:16;96417.97;;;20.02;66.59
60874;BME280;46715;40.642;-7.920;2023-08-06T00:59:17;96422.34;;;19.98;66.73
60874;BME280;46715;40.642;-7.920;2023-08-06T01:01:17;96418.47;;;19.95;67.13
60874;BME280;46715;40.642;-7.920;2023-08-06T01:03:18;96423.31;;;19.93;67.29
60874;BME280;46715;40.642;-7.920;2023-08-06T01:05:19;96418.34;;;19.91;67.31
60874;BME280;46715;40.642;-7.920;2023-08-06T01:11:44;96420.97;;;19.91;66.28
60874;BME280;46715;40.642;-7.920;2023-08-06T01:13:48;96407.75;;;19.91;65.85
60874;BME280;46715;40.642;-7.920;2023-08-06T01:15:50;96411.28;;;19.96;65.30
60874;BME280;46715;40.642;-7.920;2023-08-06T01:17:53;96411.13;;;20.01;64.40
60874;BME280;46715;40.642;-7.920;2023-08-06T01:19:54;96405.28;;;20.07;62.93
60874;BME280;46715;40.642;-7.920;2023-08-06T01:21:54;96398.50;;;20.19;61.33
60874;BME280;46715;40.642;-7.920;2023-08-06T01:23:55;96398.88;;;20.30;60.63
60874;BME280;46715;40.642;-7.920;2023-08-06T01:25:59;96393.16;;;20.40;59.86
60874;BME280;46715;40.642;-7.920;2023-08-06T01:28:09;96386.22;;;20.48;59.23
60874;BME280;46715;40.642;-7.920;2023-08-06T01:30:27;96393.94;;;20.53;58.80
60874;BME280;46715;40.642;-7.920;2023-08-06T01:32:29;96388.00;;;20.56;58.57
60874;BME280;46715;40.642;-7.920;2023-08-06T01:34:32;96383.91;;;20.58;58.47
60874;BME280;46715;40.642;-7.920;2023-08-06T01:36:35;96383.72;;;20.64;57.47
60874;BME280;46715;40.642;-7.920;2023-08-06T01:38:35;96380.88;;;20.69;57.12
60874;BME280;46715;40.642;-7.920;2023-08-06T01:40:36;96386.75;;;20.74;56.56
60874;BME280;46715;40.642;-7.920;2023-08-06T01:42:37;96376.56;;;20.76;56.47
60874;BME280;46715;40.642;-7.920;2023-08-06T01:44:37;96375.13;;;20.79;56.07
60874;BME280;46715;40.642;-7.920;2023-08-06T01:46:38;96373.28;;;20.80;56.61
60874;BME280;46715;40.642;-7.920;2023-08-06T01:48:38;96374.50;;;20.70;56.75
60874;BME280;46715;40.642;-7.920;2023-08-06T01:50:40;96370.66;;;20.58;58.15
60874;BME280;46715;40.642;-7.920;2023-08-06T01:52:41;96353.88;;;20.42;59.02
60874;BME280;46715;40.642;-7.920;2023-08-06T01:54:41;96363.00;;;20.32;59.38
60874;BME280;46715;40.642;-7.920;2023-08-06T01:56:42;96353.59;;;20.22;59.57
60874;BME280;46715;40.642;-7.920;2023-08-06T01:58:42;96357.56;;;20.16;59.60
60874;BME280;46715;40.642;-7.920;2023-08-06T02:00:43;96357.44;;;20.13;59.80
60874;BME280;46715;40.642;-7.920;2023-08-06T02:02:44;96359.84;;;20.05;60.37
60874;BME280;46715;40.642;-7.920;2023-08-06T02:04:45;96364.88;;;19.98;60.63
60874;BME280;46715;40.642;-7.920;2023-08-06T02:06:49;96376.78;;;19.92;61.03
60874;BME280;46715;40.642;-7.920;2023-08-06T02:08:49;96369.03;;;19.87;60.92
60874;BME280;46715;40.642;-7.920;2023-08-06T02:10:50;96370.78;;;19.83;60.79
60874;BME280;46715;40.642;-7.920;2023-08-06T02:12:50;96384.50;;;19.76;60.96
60874;BME280;46715;40.642;-7.920;2023-08-06T02:14:51;96384.34;;;19.72;60.66
60874;BME280;46715;40.642;-7.920;2023-08-06T02:16:52;96379.28;;;19.67;60.67
60874;BME280;46715;40.642;-7.920;2023-08-06T02:18:52;96382.25;;;19.66;60.60
60874;BME280;46715;40.642;-7.920;2023-08-06T02:20:57;96382.25;;;19.66;60.51
60874;BME280;46715;40.642;-7.920;2023-08-06T02:22:57;96389.97;;;19.71;59.63
60874;BME280;46715;40.642;-7.920;2023-08-06T02:24:58;96383.84;;;19.79;59.15
60874;BME280;46715;40.642;-7.920;2023-08-06T02:26:59;96389.88;;;19.88;58.32
60874;BME280;46715;40.642;-7.920;2023-08-06T02:28:59;96380.91;;;20.02;57.78
60874;BME280;46715;40.642;-7.920;2023-08-06T02:31:03;96382.03;;;20.13;57.13
60874;BME280;46715;40.642;-7.920;2023-08-06T02:33:03;96374.66;;;20.19;56.98
60874;BME280;46715;40.642;-7.920;2023-08-06T02:35:04;96376.78;;;20.25;56.70
60874;BME280;46715;40.642;-7.920;2023-08-06T02:37:04;96386.41;;;20.30;56.79
60874;BME280;46715;40.642;-7.920;2023-08-06T02:39:05;96380.25;;;20.38;56.35
60874;BME280;46715;40.642;-7.920;2023-08-06T02:41:06;96383.66;;;20.39;56.54
60874;BME280;46715;40.642;-7.920;2023-08-06T02:43:06;96376.81;;;20.38;56.21
60874;BME280;46715;40.642;-7.920;2023-08-06T02:45:07;96373.22;;;20.55;55.13
60874;BME280;46715;40.642;-7.920;2023-08-06T02:47:08;96373.81;;;20.73;53.97
60874;BME280;46715;40.642;-7.920;2023-08-06T02:49:09;96374.47;;;20.94;53.31
60874;BME280;46715;40.642;-7.920;2023-08-06T02:51:09;96376.91;;;21.12;52.29
60874;BME280;46715;40.642;-7.920;2023-08-06T02:53:10;96369.50;;;21.30;51.80
60874;BME280;46715;40.642;-7.920;2023-08-06T02:55:11;96365.16;;;21.62;51.21
60874;BME280;46715;40.642;-7.920;2023-08-06T02:57:16;96361.69;;;21.74;50.05
60874;BME280;46715;40.642;-7.920;2023-08-06T02:59:17;96364.38;;;21.90;49.66
60874;BME280;46715;40.642;-7.920;2023-08-06T03:01:28;96363.75;;;22.09;49.16
60874;BME280;46715;40.642;-7.920;2023-08-06T03:03:34;96360.09;;;22.14;49.12
60874;BME280;46715;40.642;-7.920;2023-08-06T03:05:36;96355.50;;;22.27;48.75
60874;BME280;46715;40.642;-7.920;2023-08-06T03:07:40;96356.03;;;22.33;48.58
60874;BME280;46715;40.642;-7.920;2023-08-06T03:09:47;96355.03;;;22.37;48.51
60874;BME280;46715;40.642;-7.920;2023-08-06T03:11:48;96350.56;;;22.41;48.67
60874;BME280;46715;40.642;-7.920;2023-08-06T03:13:49;96350.22;;;22.43;48.49
60874;BME280;46715;40.642;-7.920;2023-08-06T03:15:54;96351.44;;;22.45;48.49
60874;BME280;46715;40.642;-7.920;2023-08-06T03:17:55;96344.91;;;22.43;48.80
60874;BME280;46715;40.642;-7.920;2023-08-06T03:19:56;96351.88;;;22.47;48.66
60874;BME280;46715;40.642;-7.920;2023-08-06T03:21:59;96346.72;;;22.55;48.42
60874;BME280;46715;40.642;-7.920;2023-08-06T03:24:00;96346.13;;;22.45;48.76
60874;BME280;46715;40.642;-7.920;2023-08-06T03:26:03;96358.19;;;22.43;48.80
60874;BME280;46715;40.642;-7.920;2023-08-06T03:28:06;96348.81;;;22.33;49.07
60874;BME280;46715;40.642;-7.920;2023-08-06T03:30:08;96352.41;;;22.25;49.30
60874;BME280;46715;40.642;-7.920;2023-08-06T03:32:15;96351.13;;;22.19;49.66
60874;BME280;46715;40.642;-7.920;2023-08-06T03:34:17;96352.84;;;22.27;49.20
60874;BME280;46715;40.642;-7.920;2023-08-06T03:36:18;96347.78;;;22.22;49.45
60874;BME280;46715;40.642;-7.920;2023-08-06T03:38:19;96356.66;;;22.13;49.79
60874;BME280;46715;40.642;-7.920;2023-08-06T03:40:20;96345.28;;;22.13;49.79
60874;BME280;46715;40.642;-7.920;2023-08-06T03:42:21;96345.88;;;22.06;49.90
60874;BME280;46715;40.642;-7.920;2023-08-06T03:44:21;96348.91;;;21.92;50.54
60874;BME280;46715;40.642;-7.920;2023-08-06T03:46:22;96346.72;;;21.82;50.80
60874;BME280;46715;40.642;-7.920;2023-08-06T03:48:23;96351.50;;;21.76;50.82
60874;BME280;46715;40.642;-7.920;2023-08-06T03:50:23;96351.84;;;21.75;50.91
60874;BME280;46715;40.642;-7.920;2023-08-06T03:52:25;96346.97;;;21.77;50.87
60874;BME280;46715;40.642;-7.920;2023-08-06T03:54:25;96356.03;;;21.76;50.99
60874;BME280;46715;40.642;-7.920;2023-08-06T03:56:26;96350.50;;;21.81;51.03
60874;BME280;46715;40.642;-7.920;2023-08-06T03:58:26;96345.63;;;21.83;51.30
60874;BME280;46715;40.642;-7.920;2023-08-06T04:00:27;96351.28;;;21.82;51.23
60874;BME280;46715;40.642;-7.920;2023-08-06T04:02:28;96332.34;;;21.83;50.98
60874;BME280;46715;40.642;-7.920;2023-08-06T04:04:28;96331.94;;;21.81;51.33
60874;BME280;46715;40.642;-7.920;2023-08-06T04:06:29;96338.09;;;21.85;51.12
60874;BME280;46715;40.642;-7.920;2023-08-06T04:08:29;96333.25;;;21.75;51.42
60874;BME280;46715;40.642;-7.920;2023-08-06T04:10:30;96333.06;;;21.68;51.98
60874;BME280;46715;40.642;-7.920;2023-08-06T04:12:31;96334.50;;;21.65;51.87
60874;BME280;46715;40.642;-7.920;2023-08-06T04:14:32;96331.97;;;21.69;51.71
60874;BME280;46715;40.642;-7.920;2023-08-06T04:16:33;96331.81;;;21.77;51.54
60874;BME280;46715;40.642;-7.920;2023-08-06T04:18:33;96324.97;;;21.76;51.83
60874;BME280;46715;40.642;-7.920;2023-08-06T04:20:34;96313.16;;;21.74;52.01
60874;BME280;46715;40.642;-7.920;2023-08-06T04:22:35;96318.34;;;21.70;51.99
60874;BME280;46715;40.642;-7.920;2023-08-06T04:24:35;96310.28;;;21.67;52.19
60874;BME280;46715;40.642;-7.920;2023-08-06T04:26:36;96313.81;;;21.71;52.53
60874;BME280;46715;40.642;-7.920;2023-08-06T04:28:36;96313.69;;;21.79;52.09
60874;BME280;46715;40.642;-7.920;2023-08-06T04:30:37;96314.34;;;21.76;52.43
60874;BME280;46715;40.642;-7.920;2023-08-06T04:32:38;96307.84;;;21.74;52.77
60874;BME280;46715;40.642;-7.920;2023-08-06T04:34:39;96308.09;;;21.69;52.91
60874;BME280;46715;40.642;-7.920;2023-08-06T04:36:40;96304.44;;;21.61;53.41
60874;BME280;46715;40.642;-7.920;2023-08-06T04:38:43;96322.34;;;21.64;53.11
60874;BME280;46715;40.642;-7.920;2023-08-06T04:40:45;96310.56;;;21.61;53.48
60874;BME280;46715;40.642;-7.920;2023-08-06T04:42:46;96317.53;;;21.82;52.93
60874;BME280;46715;40.642;-7.920;2023-08-06T04:44:46;96332.34;;;21.83;53.38
60874;BME280;46715;40.642;-7.920;2023-08-06T04:46:47;96324.84;;;21.85;53.14
60874;BME280;46715;40.642;-7.920;2023-08-06T04:48:47;96329.88;;;21.90;53.07
60874;BME280;46715;40.642;-7.920;2023-08-06T04:50:48;96331.19;;;21.96;52.95
60874;BME280;46715;40.642;-7.920;2023-08-06T04:52:49;96333.34;;;22.07;52.70
60874;BME280;46715;40.642;-7.920;2023-08-06T04:54:50;96328.06;;;22.23;52.16
60874;BME280;46715;40.642;-7.920;2023-08-06T04:56:50;96342.75;;;22.33;52.16
60874;BME280;46715;40.642;-7.920;2023-08-06T04:58:51;96334.56;;;22.38;51.97
60874;BME280;46715;40.642;-7.920;2023-08-06T05:00:52;96346.13;;;22.45;51.71
60874;BME280;46715;40.642;-7.920;2023-08-06T05:02:53;96343.97;;;22.35;52.45
60874;BME280;46715;40.642;-7.920;2023-08-06T05:04:54;96338.06;;;22.42;52.50
60874;BME280;46715;40.642;-7.920;2023-08-06T05:06:54;96363.78;;;22.38;52.88
60874;BME280;46715;40.642;-7.920;2023-08-06T05:08:55;96343.44;;;22.29;53.06
60874;BME280;46715;40.642;-7.920;2023-08-06T05:10:55;96357.97;;;22.20;53.40
60874;BME280;46715;40.642;-7.920;2023-08-06T05:12:56;96347.75;;;22.06;53.57
60874;BME280;46715;40.642;-7.920;2023-08-06T05:14:57;96357.81;;;22.00;54.01
60874;BME280;46715;40.642;-7.920;2023-08-06T05:16:57;96371.66;;;22.06;53.89
60874;BME280;46715;40.642;-7.920;2023-08-06T05:18:58;96366.88;;;22.11;53.76
60874;BME280;46715;40.642;-7.920;2023-08-06T05:20:58;96374.91;;;22.15;53.65
60874;BME280;46715;40.642;-7.920;2023-08-06T05:22:59;96366.91;;;21.99;53.82
60874;BME280;46715;40.642;-7.920;2023-08-06T05:24:59;96375.66;;;22.00;54.06
60874;BME280;46715;40.642;-7.920;2023-08-06T05:27:00;96374.34;;;21.93;54.21
60874;BME280;46715;40.642;-7.920;2023-08-06T05:29:00;96378.53;;;21.94;54.26
60874;BME280;46715;40.642;-7.920;2023-08-06T05:31:04;96382.31;;;21.93;53.97
60874;BME280;46715;40.642;-7.920;2023-08-06T05:33:05;96377.44;;;21.95;53.97
60874;BME280;46715;40.642;-7.920;2023-08-06T05:35:05;96383.50;;;21.96;53.78
60874;BME280;46715;40.642;-7.920;2023-08-06T05:37:06;96377.00;;;21.93;53.53
60874;BME280;46715;40.642;-7.920;2023-08-06T05:39:09;96378.69;;;21.86;53.82
60874;BME280;46715;40.642;-7.920;2023-08-06T05:41:10;96375.50;;;21.80;53.84
60874;BME280;46715;40.642;-7.920;2023-08-06T05:43:10;96379.44;;;21.86;53.82
60874;BME280;46715;40.642;-7.920;2023-08-06T05:45:11;96377.38;;;21.79;53.41
60874;BME280;46715;40.642;-7.920;2023-08-06T05:47:11;96384.22;;;21.80;53.47
60874;BME280;46715;40.642;-7.920;2023-08-06T05:49:12;96382.03;;;21.83;53.11
60874;BME280;46715;40.642;-7.920;2023-08-06T05:51:13;96376.78;;;21.86;52.64
60874;BME280;46715;40.642;-7.920;2023-08-06T05:53:16;96375.91;;;21.82;52.98
60874;BME280;46715;40.642;-7.920;2023-08-06T05:55:16;96371.97;;;21.76;52.99
60874;BME280;46715;40.642;-7.920;2023-08-06T05:57:17;96371.84;;;21.72;52.38
60874;BME280;46715;40.642;-7.920;2023-08-06T05:59:18;96382.47;;;21.72;52.78
60874;BME280;46715;40.642;-7.920;2023-08-06T06:01:18;96387.91;;;21.76;52.59
60874;BME280;46715;40.642;-7.920;2023-08-06T06:03:19;96385.59;;;21.74;52.30
60874;BME280;46715;40.642;-7.920;2023-08-06T06:05:20;96387.25;;;21.67;52.25
60874;BME280;46715;40.642;-7.920;2023-08-06T06:07:20;96392.13;;;21.65;52.13
60874;BME280;46715;40.642;-7.920;2023-08-06T06:09:21;96383.28;;;21.60;52.44
60874;BME280;46715;40.642;-7.920;2023-08-06T06:11:21;96386.03;;;21.64;51.98
60874;BME280;46715;40.642;-7.920;2023-08-06T06:13:22;96385.03;;;21.69;52.01
60874;BME280;46715;40.642;-7.920;2023-08-06T06:15:23;96391.22;;;21.73;51.54
60874;BME280;46715;40.642;-7.920;2023-08-06T06:17:24;96391.31;;;21.76;51.63
60874;BME280;46715;40.642;-7.920;2023-08-06T06:19:25;96386.22;;;21.84;51.09
60874;BME280;46715;40.642;-7.920;2023-08-06T06:21:26;96390.84;;;21.87;51.12
60874;BME280;46715;40.642;-7.920;2023-08-06T06:23:26;96390.28;;;21.93;50.99
60874;BME280;46715;40.642;-7.920;2023-08-06T06:25:27;96394.56;;;21.98;50.65
60874;BME280;46715;40.642;-7.920;2023-08-06T06:27:27;96395.00;;;22.00;50.71
60874;BME280;46715;40.642;-7.920;2023-08-06T06:29:28;96402.66;;;22.02;50.73
60874;BME280;46715;40.642;-7.920;2023-08-06T06:31:28;96397.88;;;22.07;50.66
60874;BME280;46715;40.642;-7.920;2023-08-06T06:33:29;96407.13;;;22.13;50.48
60874;BME280;46715;40.642;-7.920;2023-08-06T06:35:29;96408.00;;;22.18;50.26
60874;BME280;46715;40.642;-7.920;2023-08-06T06:37:30;96395.22;;;22.07;51.16
60874;BME280;46715;40.642;-7.920;2023-08-06T06:39:30;96398.25;;;22.22;50.43
60874;BME280;46715;40.642;-7.920;2023-08-06T06:41:31;96401.41;;;22.27;50.49
60874;BME280;46715;40.642;-7.920;2023-08-06T06:43:39;96402.75;;;22.34;50.54
60874;BME280;46715;40.642;-7.920;2023-08-06T06:45:40;96402.41;;;22.35;50.59
60874;BME280;46715;40.642;-7.920;2023-08-06T06:47:40;96407.56;;;22.44;50.44
60874;BME280;46715;40.642;-7.920;2023-08-06T06:49:41;96415.03;;;22.38;50.84
60874;BME280;46715;40.642;-7.920;2023-08-06T06:51:42;96405.34;;;22.46;50.55
60874;BME280;46715;40.642;-7.920;2023-08-06T06:53:42;96408.09;;;22.50;50.80
60874;BME280;46715;40.642;-7.920;2023-08-06T06:55:43;96407.16;;;22.42;50.69
60874;BME280;46715;40.642;-7.920;2023-08-06T06:57:43;96411.19;;;22.52;50.66
60874;BME280;46715;40.642;-7.920;2023-08-06T06:59:44;96408.97;;;22.54;50.23
60874;BME280;46715;40.642;-7.920;2023-08-06T07:01:44;96410.50;;;22.55;50.40
60874;BME280;46715;40.642;-7.920;2023-08-06T07:03:45;96410.50;;;22.55;50.43
60874;BME280;46715;40.642;-7.920;2023-08-06T07:05:49;96414.19;;;22.66;50.03
60874;BME280;46715;40.642;-7.920;2023-08-06T07:07:50;96421.84;;;22.68;50.34
60874;BME280;46715;40.642;-7.920;2023-08-06T07:09:52;96414.88;;;22.79;49.85
60874;BME280;46715;40.642;-7.920;2023-08-06T07:11:52;96413.78;;;22.80;50.21
60874;BME280;46715;40.642;-7.920;2023-08-06T07:13:56;96416.34;;;22.92;49.60
60874;BME280;46715;40.642;-7.920;2023-08-06T07:15:58;96411.47;;;22.94;49.79
60874;BME280;46715;40.642;-7.920;2023-08-06T07:17:59;96415.47;;;23.04;49.78
60874;BME280;46715;40.642;-7.920;2023-08-06T07:19:59;96411.00;;;23.40;48.66
60874;BME280;46715;40.642;-7.920;2023-08-06T07:22:00;96412.38;;;24.05;47.05
60874;BME280;46715;40.642;-7.920;2023-08-06T07:24:00;96419.75;;;24.55;46.19
60874;BME280;46715;40.642;-7.920;2023-08-06T07:26:00;96405.38;;;25.06;44.65
60874;BME280;46715;40.642;-7.920;2023-08-06T07:28:01;96402.25;;;25.53;44.00
60874;BME280;46715;40.642;-7.920;2023-08-06T07:30:02;96411.47;;;25.56;43.64
60874;BME280;46715;40.642;-7.920;2023-08-06T07:32:03;96412.28;;;25.60;43.42
60874;BME280;46715;40.642;-7.920;2023-08-06T07:34:03;96395.88;;;25.62;43.46
60874;BME280;46715;40.642;-7.920;2023-08-06T07:36:07;96407.91;;;25.75;43.11
60874;BME280;46715;40.642;-7.920;2023-08-06T07:38:08;96399.53;;;26.07;42.76
60874;BME280;46715;40.642;-7.920;2023-08-06T07:40:08;96407.56;;;26.90;40.31
60874;BME280;46715;40.642;-7.920;2023-08-06T07:42:10;96406.22;;;27.80;38.90
60874;BME280;46715;40.642;-7.920;2023-08-06T07:44:11;96403.41;;;28.57;37.24
60874;BME280;46715;40.642;-7.920;2023-08-06T07:46:11;96406.91;;;29.16;36.22
60874;BME280;46715;40.642;-7.920;2023-08-06T07:48:13;96403.31;;;29.80;34.54
60874;BME280;46715;40.642;-7.920;2023-08-06T07:50:14;96406.59;;;30.20;34.54
60874;BME280;46715;40.642;-7.920;2023-08-06T07:52:14;96403.25;;;31.18;33.27
60874;BME280;46715;40.642;-7.920;2023-08-06T07:54:15;96400.03;;;32.03;31.36
60874;BME280;46715;40.642;-7.920;2023-08-06T07:56:15;96406.00;;;32.49;30.46
60874;BME280;46715;40.642;-7.920;2023-08-06T07:58:16;96409.97;;;33.15;29.92
60874;BME280;46715;40.642;-7.920;2023-08-06T08:00:16;96416.91;;;32.65;30.13
60874;BME280;46715;40.642;-7.920;2023-08-06T08:02:17;96413.97;;;32.83;30.10
60874;BME280;46715;40.642;-7.920;2023-08-06T08:04:18;96408.44;;;33.38;29.36
60874;BME280;46715;40.642;-7.920;2023-08-06T08:06:18;96404.25;;;34.34;28.64
60874;BME280;46715;40.642;-7.920;2023-08-06T08:08:19;96400.50;;;34.80;27.50
60874;BME280;46715;40.642;-7.920;2023-08-06T08:10:19;96403.06;;;34.51;27.68
60874;BME280;46715;40.642;-7.920;2023-08-06T08:12:21;96400.63;;;35.06;27.70
60874;BME280;46715;40.642;-7.920;2023-08-06T08:14:21;96395.22;;;34.90;27.65
60874;BME280;46715;40.642;-7.920;2023-08-06T08:16:22;96403.56;;;34.29;27.66
60874;BME280;46715;40.642;-7.920;2023-08-06T08:18:22;96397.66;;;34.35;27.92
60874;BME280;46715;40.642;-7.920;2023-08-06T08:20:23;96387.09;;;34.90;27.70
60874;BME280;46715;40.642;-7.920;2023-08-06T08:22:24;96393.16;;;35.10;26.97
60874;BME280;46715;40.642;-7.920;2023-08-06T08:24:24;96396.91;;;35.00;27.37
60874;BME280;46715;40.642;-7.920;2023-08-06T08:26:25;96390.72;;;34.99;27.37
60874;BME280;46715;40.642;-7.920;2023-08-06T08:28:27;96391.75;;;35.06;26.86
60874;BME280;46715;40.642;-7.920;2023-08-06T08:30:28;96387.44;;;34.92;27.03
60874;BME280;46715;40.642;-7.920;2023-08-06T08:32:28;96392.16;;;34.71;26.72
60874;BME280;46715;40.642;-7.920;2023-08-06T08:34:29;96389.59;;;35.13;26.35
60874;BME280;46715;40.642;-7.920;2023-08-06T08:36:29;96393.28;;;34.90;26.72
60874;BME280;46715;40.642;-7.920;2023-08-06T08:38:30;96403.91;;;34.31;27.10
60874;BME280;46715;40.642;-7.920;2023-08-06T08:40:31;96391.09;;;34.15;27.74
60874;BME280;46715;40.642;-7.920;2023-08-06T08:42:32;96383.16;;;33.68;28.46
60874;BME280;46715;40.642;-7.920;2023-08-06T08:44:32;96403.63;;;33.89;28.02
60874;BME280;46715;40.642;-7.920;2023-08-06T08:46:37;96400.28;;;33.81;27.85
60874;BME280;46715;40.642;-7.920;2023-08-06T08:48:38;96394.53;;;33.79;27.92
60874;BME280;46715;40.642;-7.920;2023-08-06T08:50:39;96400.31;;;34.18;27.80
60874;BME280;46715;40.642;-7.920;2023-08-06T08:52:39;96388.88;;;34.30;27.12
60874;BME280;46715;40.642;-7.920;2023-08-06T08:54:40;96390.47;;;34.44;27.72
60874;BME280;46715;40.642;-7.920;2023-08-06T08:56:42;96387.00;;;34.44;27.18
60874;BME280;46715;40.642;-7.920;2023-08-06T08:58:42;96392.25;;;34.35;27.36
60874;BME280;46715;40.642;-7.920;2023-08-06T09:00:43;96396.16;;;34.13;27.58
60874;BME280;46715;40.642;-7.920;2023-08-06T09:02:45;96393.84;;;34.32;27.80
60874;BME280;46715;40.642;-7.920;2023-08-06T09:04:47;96392.50;;;34.73;27.61
60874;BME280;46715;40.642;-7.920;2023-08-06T09:06:50;96385.91;;;34.91;27.49
60874;BME280;46715;40.642;-7.920;2023-08-06T09:08:53;96391.13;;;35.14;26.34
60874;BME280;46715;40.642;-7.920;2023-08-06T09:10:57;96386.97;;;35.56;26.35
60874;BME280;46715;40.642;-7.920;2023-08-06T09:12:58;96389.22;;;35.44;26.42
60874;BME280;46715;40.642;-7.920;2023-08-06T09:15:01;96389.00;;;35.39;26.58
60874;BME280;46715;40.642;-7.920;2023-08-06T09:17:03;96393.50;;;35.58;26.18
60874;BME280;46715;40.642;-7.920;2023-08-06T09:19:11;96389.75;;;35.81;26.09
60874;BME280;46715;40.642;-7.920;2023-08-06T09:21:13;96387.16;;;35.48;25.98
60874;BME280;46715;40.642;-7.920;2023-08-06T09:23:14;96388.22;;;35.22;26.98
60874;BME280;46715;40.642;-7.920;2023-08-06T09:25:24;96391.53;;;35.29;26.76
60874;BME280;46715;40.642;-7.920;2023-08-06T09:27:25;96393.19;;;35.40;26.73
60874;BME280;46715;40.642;-7.920;2023-08-06T09:29:26;96402.78;;;35.44;26.61
60874;BME280;46715;40.642;-7.920;2023-08-06T09:31:49;96391.94;;;35.44;26.13
60874;BME280;46715;40.642;-7.920;2023-08-06T09:33:52;96388.25;;;35.51;26.69
60874;BME280;46715;40.642;-7.920;2023-08-06T09:35:53;96393.19;;;35.40;26.58
60874;BME280;46715;40.642;-7.920;2023-08-06T09:37:55;96402.34;;;35.00;27.28
60874;BME280;46715;40.642;-7.920;2023-08-06T09:39:55;96397.28;;;35.31;26.89
60874;BME280;46715;40.642;-7.920;2023-08-06T09:41:56;96391.09;;;35.60;26.46
60874;BME280;46715;40.642;-7.920;2023-08-06T09:43:57;96385.91;;;36.08;25.51
60874;BME280;46715;40.642;-7.920;2023-08-06T09:45:58;96393.06;;;35.60;25.93
60874;BME280;46715;40.642;-7.920;2023-08-06T09:47:59;96393.34;;;35.91;25.98
60874;BME280;46715;40.642;-7.920;2023-08-06T09:50:00;96389.34;;;35.54;26.11
60874;BME280;46715;40.642;-7.920;2023-08-06T09:52:01;96384.69;;;35.96;26.35
60874;BME280;46715;40.642;-7.920;2023-08-06T09:54:02;96376.56;;;36.22;25.42
60874;BME280;46715;40.642;-7.920;2023-08-06T09:56:04;96383.22;;;36.95;25.14
60874;BME280;46715;40.642;-7.920;2023-08-06T09:58:05;96384.97;;;37.24;24.59
60874;BME280;46715;40.642;-7.920;2023-08-06T10:00:07;96392.41;;;37.67;24.13
60874;BME280;46715;40.642;-7.920;2023-08-06T10:02:13;96381.63;;;38.17;23.72
60874;BME280;46715;40.642;-7.920;2023-08-06T10:04:14;96389.16;;;38.04;23.75
60874;BME280;46715;40.642;-7.920;2023-08-06T10:06:16;96389.63;;;37.58;23.63
60874;BME280;46715;40.642;-7.920;2023-08-06T10:08:17;96392.09;;;37.88;23.70
60874;BME280;46715;40.642;-7.920;2023-08-06T10:10:17;96386.28;;;38.08;23.56
60874;BME280;46715;40.642;-7.920;2023-08-06T10:12:20;96392.22;;;37.40;24.30
60874;BME280;46715;40.642;-7.920;2023-08-06T10:14:28;96382.81;;;37.18;24.53
60874;BME280;46715;40.642;-7.920;2023-08-06T10:16:30;96376.97;;;37.86;24.01
60874;BME280;46715;40.642;-7.920;2023-08-06T10:18:31;96389.66;;;38.21;23.19
60874;BME280;46715;40.642;-7.920;2023-08-06T10:20:35;96379.66;;;38.59;22.46
60874;BME280;46715;40.642;-7.920;2023-08-06T10:22:36;96373.53;;;38.86;22.82
60874;BME280;46715;40.642;-7.920;2023-08-06T10:26:56;96376.41;;;39.57;22.20
60874;BME280;46715;40.642;-7.920;2023-08-06T10:28:57;96380.19;;;39.59;21.65
60874;BME280;46715;40.642;-7.920;2023-08-06T10:30:57;96384.88;;;39.49;21.67
60874;BME280;46715;40.642;-7.920;2023-08-06T10:33:04;96374.06;;;38.21;22.91
60874;BME280;46715;40.642;-7.920;2023-08-06T10:35:04;96381.38;;;38.75;22.84
60874;BME280;46715;40.642;-7.920;2023-08-06T10:37:05;96374.28;;;38.86;22.42
60874;BME280;46715;40.642;-7.920;2023-08-06T10:39:05;96374.88;;;38.81;22.53
60874;BME280;46715;40.642;-7.920;2023-08-06T10:41:06;96376.59;;;39.25;22.04